sensor_id;sensor_type;location;lat;lon;timestamp;temperature;humidity
39525;DHT22;25203;50.754;6.978;2023-06-22T00:01:34;19.50;99.90
39525;DHT22;25203;50.754;6.978;2023-06-22T00:03:35;19.50;99.90
39525;DHT22;25203;50.754;6.978;2023-06-22T00:05:36;19.50;99.90
39525;DHT22;25203;50.754;6.978;2023-06-22T00:07:37;19.50;99.90
39525;DHT22;25203;50.754;6.978;2023-06-22T00:09:38;19.50;99.90
39525;DHT22;25203;50.754;6.978;2023-06-22T00:11:38;19.50;99.90
39525;DHT22;25203;50.754;6.978;2023-06-22T00:13:39;19.50;99.90
39525;DHT22;25203;50.754;6.978;2023-06-22T00:15:41;19.40;99.90
39525;DHT22;25203;50.754;6.978;2023-06-22T00:17:42;19.50;99.90
39525;DHT22;25203;50.754;6.978;2023-06-22T00:19:42;19.40;99.90
39525;DHT22;25203;50.754;6.978;2023-06-22T00:21:43;19.50;99.90
39525;DHT22;25203;50.754;6.978;2023-06-22T00:23:47;19.50;99.90
39525;DHT22;25203;50.754;6.978;2023-06-22T00:25:47;19.60;99.90
39525;DHT22;25203;50.754;6.978;2023-06-22T00:27:48;19.60;99.90
39525;DHT22;25203;50.754;6.978;2023-06-22T00:29:49;19.60;99.90
39525;DHT22;25203;50.754;6.978;2023-06-22T00:31:50;19.60;99.90
39525;DHT22;25203;50.754;6.978;2023-06-22T00:33:50;19.50;99.90
39525;DHT22;25203;50.754;6.978;2023-06-22T00:35:51;19.50;99.90
39525;DHT22;25203;50.754;6.978;2023-06-22T00:37:53;19.50;99.90
39525;DHT22;25203;50.754;6.978;2023-06-22T00:39:53;19.50;99.90
39525;DHT22;25203;50.754;6.978;2023-06-22T00:41:55;19.60;99.90
39525;DHT22;25203;50.754;6.978;2023-06-22T00:43:57;19.60;99.90
39525;DHT22;25203;50.754;6.978;2023-06-22T00:45:57;19.60;99.90
39525;DHT22;25203;50.754;6.978;2023-06-22T00:47:59;19.70;99.90
39525;DHT22;25203;50.754;6.978;2023-06-22T00:49:59;19.70;99.90
39525;DHT22;25203;50.754;6.978;2023-06-22T00:52:00;19.70;99.90
39525;DHT22;25203;50.754;6.978;2023-06-22T00:54:01;19.60;99.90
39525;DHT22;25203;50.754;6.978;2023-06-22T00:56:02;19.50;99.90
39525;DHT22;25203;50.754;6.978;2023-06-22T00:58:04;19.40;99.90
39525;DHT22;25203;50.754;6.978;2023-06-22T01:00:08;19.40;99.90
39525;DHT22;25203;50.754;6.978;2023-06-22T01:02:12;19.30;99.90
39525;DHT22;25203;50.754;6.978;2023-06-22T01:04:13;19.30;99.90
39525;DHT22;25203;50.754;6.978;2023-06-22T01:06:22;19.30;99.90
39525;DHT22;25203;50.754;6.978;2023-06-22T01:08:36;19.30;99.90
39525;DHT22;25203;50.754;6.978;2023-06-22T01:10:44;19.40;99.90
39525;DHT22;25203;50.754;6.978;2023-06-22T01:12:59;19.40;99.90
39525;DHT22;25203;50.754;6.978;2023-06-22T01:15:16;19.40;99.90
39525;DHT22;25203;50.754;6.978;2023-06-22T01:17:20;19.40;99.90
39525;DHT22;25203;50.754;6.978;2023-06-22T01:19:44;19.50;99.90
39525;DHT22;25203;50.754;6.978;2023-06-22T01:21:48;19.50;99.90
39525;DHT22;25203;50.754;6.978;2023-06-22T01:26:38;19.50;99.90
39525;DHT22;25203;50.754;6.978;2023-06-22T01:28:47;19.50;99.90
39525;DHT22;25203;50.754;6.978;2023-06-22T01:30:49;19.50;99.90
39525;DHT22;25203;50.754;6.978;2023-06-22T01:33:04;19.40;99.90
39525;DHT22;25203;50.754;6.978;2023-06-22T01:35:07;19.30;99.90
39525;DHT22;25203;50.754;6.978;2023-06-22T01:37:09;19.30;99.90
39525;DHT22;25203;50.754;6.978;2023-06-22T01:39:10;19.20;99.90
39525;DHT22;25203;50.754;6.978;2023-06-22T01:41:12;19.20;99.90
39525;DHT22;25203;50.754;6.978;2023-06-22T01:43:13;19.20;99.90
39525;DHT22;25203;50.754;6.978;2023-06-22T01:45:14;19.20;99.90
39525;DHT22;25203;50.754;6.978;2023-06-22T01:47:16;19.20;99.90
39525;DHT22;25203;50.754;6.978;2023-06-22T01:49:18;19.20;99.90
39525;DHT22;25203;50.754;6.978;2023-06-22T01:51:18;19.20;99.90
39525;DHT22;25203;50.754;6.978;2023-06-22T01:53:23;19.20;99.90
39525;DHT22;25203;50.754;6.978;2023-06-22T01:55:23;19.20;99.90
39525;DHT22;25203;50.754;6.978;2023-06-22T01:57:24;19.20;99.90
39525;DHT22;25203;50.754;6.978;2023-06-22T02:02:04;19.10;99.90
39525;DHT22;25203;50.754;6.978;2023-06-22T02:04:11;19.10;99.90
39525;DHT22;25203;50.754;6.978;2023-06-22T02:06:17;19.00;99.90
39525;DHT22;25203;50.754;6.978;2023-06-22T02:08:28;19.00;99.90
39525;DHT22;25203;50.754;6.978;2023-06-22T02:10:31;18.90;99.90
39525;DHT22;25203;50.754;6.978;2023-06-22T02:12:33;18.90;99.90
39525;DHT22;25203;50.754;6.978;2023-06-22T02:14:35;18.90;99.90
39525;DHT22;25203;50.754;6.978;2023-06-22T02:16:37;18.90;99.90
39525;DHT22;25203;50.754;6.978;2023-06-22T02:18:38;18.90;99.90
39525;DHT22;25203;50.754;6.978;2023-06-22T02:20:40;18.90;99.90
39525;DHT22;25203;50.754;6.978;2023-06-22T02:22:41;19.00;99.90
39525;DHT22;25203;50.754;6.978;2023-06-22T02:24:42;18.90;99.90
39525;DHT22;25203;50.754;6.978;2023-06-22T02:26:43;18.90;99.90
39525;DHT22;25203;50.754;6.978;2023-06-22T02:28:45;18.90;99.90
39525;DHT22;25203;50.754;6.978;2023-06-22T02:30:46;18.90;99.90
39525;DHT22;25203;50.754;6.978;2023-06-22T02:32:47;18.90;99.90
39525;DHT22;25203;50.754;6.978;2023-06-22T02:34:47;18.80;99.90
39525;DHT22;25203;50.754;6.978;2023-06-22T02:36:49;18.80;99.90
39525;DHT22;25203;50.754;6.978;2023-06-22T02:38:53;18.80;99.90
39525;DHT22;25203;50.754;6.978;2023-06-22T02:40:54;18.80;99.90
39525;DHT22;25203;50.754;6.978;2023-06-22T02:42:55;18.80;99.90
39525;DHT22;25203;50.754;6.978;2023-06-22T02:44:58;18.80;99.90
39525;DHT22;25203;50.754;6.978;2023-06-22T02:46:59;18.80;99.90
39525;DHT22;25203;50.754;6.978;2023-06-22T02:48:59;18.90;99.90
39525;DHT22;25203;50.754;6.978;2023-06-22T02:51:00;18.90;99.90
39525;DHT22;25203;50.754;6.978;2023-06-22T02:53:00;18.90;99.90
39525;DHT22;25203;50.754;6.978;2023-06-22T02:55:01;18.90;99.90
39525;DHT22;25203;50.754;6.978;2023-06-22T02:57:02;18.90;99.90
39525;DHT22;25203;50.754;6.978;2023-06-22T02:59:03;18.90;99.90
39525;DHT22;25203;50.754;6.978;2023-06-22T03:01:07;18.90;99.90
39525;DHT22;25203;50.754;6.978;2023-06-22T03:03:08;18.80;99.90
39525;DHT22;25203;50.754;6.978;2023-06-22T03:05:08;18.80;99.90
39525;DHT22;25203;50.754;6.978;2023-06-22T03:07:15;18.80;99.90
39525;DHT22;25203;50.754;6.978;2023-06-22T03:09:17;18.80;99.90
39525;DHT22;25203;50.754;6.978;2023-06-22T03:11:18;18.80;99.90
39525;DHT22;25203;50.754;6.978;2023-06-22T03:13:18;18.80;99.90
39525;DHT22;25203;50.754;6.978;2023-06-22T03:15:19;18.80;99.90
39525;DHT22;25203;50.754;6.978;2023-06-22T03:17:20;18.80;99.90
39525;DHT22;25203;50.754;6.978;2023-06-22T03:19:20;18.80;99.90
39525;DHT22;25203;50.754;6.978;2023-06-22T03:21:23;18.80;99.90
39525;DHT22;25203;50.754;6.978;2023-06-22T03:23:23;18.80;99.90
39525;DHT22;25203;50.754;6.978;2023-06-22T03:25:24;18.80;99.90
39525;DHT22;25203;50.754;6.978;2023-06-22T03:27:24;18.80;99.90
39525;DHT22;25203;50.754;6.978;2023-06-22T03:29:25;18.80;99.90
39525;DHT22;25203;50.754;6.978;2023-06-22T03:31:26;18.70;99.90
39525;DHT22;25203;50.754;6.978;2023-06-22T03:33:26;18.80;99.90
39525;DHT22;25203;50.754;6.978;2023-06-22T03:35:27;18.80;99.90
39525;DHT22;25203;50.754;6.978;2023-06-22T03:37:28;18.80;99.90
39525;DHT22;25203;50.754;6.978;2023-06-22T03:39:29;18.70;99.90
39525;DHT22;25203;50.754;6.978;2023-06-22T03:41:30;18.70;99.90
39525;DHT22;25203;50.754;6.978;2023-06-22T03:43:30;18.70;99.90
39525;DHT22;25203;50.754;6.978;2023-06-22T03:45:31;18.70;99.90
39525;DHT22;25203;50.754;6.978;2023-06-22T03:47:32;18.70;99.90
39525;DHT22;25203;50.754;6.978;2023-06-22T03:49:33;18.70;99.90
39525;DHT22;25203;50.754;6.978;2023-06-22T03:51:34;18.80;99.90
39525;DHT22;25203;50.754;6.978;2023-06-22T03:53:35;18.80;99.90
39525;DHT22;25203;50.754;6.978;2023-06-22T03:55:35;18.70;99.90
39525;DHT22;25203;50.754;6.978;2023-06-22T03:57:36;18.80;99.90
39525;DHT22;25203;50.754;6.978;2023-06-22T03:59:37;18.70;99.90
39525;DHT22;25203;50.754;6.978;2023-06-22T04:01:37;18.70;99.90
39525;DHT22;25203;50.754;6.978;2023-06-22T04:03:38;18.70;99.90
39525;DHT22;25203;50.754;6.978;2023-06-22T04:05:40;18.70;99.90
39525;DHT22;25203;50.754;6.978;2023-06-22T04:07:40;18.70;99.90
39525;DHT22;25203;50.754;6.978;2023-06-22T04:09:41;18.70;99.90
39525;DHT22;25203;50.754;6.978;2023-06-22T04:11:42;18.80;99.90
39525;DHT22;25203;50.754;6.978;2023-06-22T04:13:42;18.90;99.90
39525;DHT22;25203;50.754;6.978;2023-06-22T04:15:43;18.90;99.90
39525;DHT22;25203;50.754;6.978;2023-06-22T04:17:44;18.90;99.90
39525;DHT22;25203;50.754;6.978;2023-06-22T04:19:44;19.00;99.90
39525;DHT22;25203;50.754;6.978;2023-06-22T04:21:45;19.00;99.90
39525;DHT22;25203;50.754;6.978;2023-06-22T04:23:46;18.90;99.90
39525;DHT22;25203;50.754;6.978;2023-06-22T04:25:46;18.90;99.90
39525;DHT22;25203;50.754;6.978;2023-06-22T04:27:48;18.90;99.90
39525;DHT22;25203;50.754;6.978;2023-06-22T04:29:48;18.90;99.90
39525;DHT22;25203;50.754;6.978;2023-06-22T04:31:49;18.90;99.90
39525;DHT22;25203;50.754;6.978;2023-06-22T04:33:51;19.00;99.90
39525;DHT22;25203;50.754;6.978;2023-06-22T04:35:51;19.10;99.90
39525;DHT22;25203;50.754;6.978;2023-06-22T04:37:53;19.20;99.90
39525;DHT22;25203;50.754;6.978;2023-06-22T04:39:55;19.20;99.90
39525;DHT22;25203;50.754;6.978;2023-06-22T04:41:55;19.10;99.90
39525;DHT22;25203;50.754;6.978;2023-06-22T04:44:00;19.10;99.90
39525;DHT22;25203;50.754;6.978;2023-06-22T04:46:01;19.00;99.90
39525;DHT22;25203;50.754;6.978;2023-06-22T04:48:05;19.00;99.90
39525;DHT22;25203;50.754;6.978;2023-06-22T04:50:06;19.00;99.90
39525;DHT22;25203;50.754;6.978;2023-06-22T04:52:08;19.00;99.90
39525;DHT22;25203;50.754;6.978;2023-06-22T04:54:09;19.00;99.90
39525;DHT22;25203;50.754;6.978;2023-06-22T04:56:10;19.00;99.90
39525;DHT22;25203;50.754;6.978;2023-06-22T04:58:10;19.10;99.90
39525;DHT22;25203;50.754;6.978;2023-06-22T05:00:13;19.20;99.90
39525;DHT22;25203;50.754;6.978;2023-06-22T05:02:17;19.30;99.90
39525;DHT22;25203;50.754;6.978;2023-06-22T05:04:18;19.40;99.90
39525;DHT22;25203;50.754;6.978;2023-06-22T05:06:18;19.50;99.90
39525;DHT22;25203;50.754;6.978;2023-06-22T05:08:19;19.50;99.90
39525;DHT22;25203;50.754;6.978;2023-06-22T05:10:20;19.60;99.90
39525;DHT22;25203;50.754;6.978;2023-06-22T05:12:20;19.60;99.90
39525;DHT22;25203;50.754;6.978;2023-06-22T05:14:21;19.70;99.90
39525;DHT22;25203;50.754;6.978;2023-06-22T05:16:22;19.80;99.90
39525;DHT22;25203;50.754;6.978;2023-06-22T05:18:24;19.90;99.90
39525;DHT22;25203;50.754;6.978;2023-06-22T05:20:25;20.00;99.90
39525;DHT22;25203;50.754;6.978;2023-06-22T05:22:25;20.20;99.90
39525;DHT22;25203;50.754;6.978;2023-06-22T05:24:26;20.20;99.90
39525;DHT22;25203;50.754;6.978;2023-06-22T05:26:27;20.30;99.90
39525;DHT22;25203;50.754;6.978;2023-06-22T05:28:27;20.30;99.90
39525;DHT22;25203;50.754;6.978;2023-06-22T05:30:28;20.30;99.90
39525;DHT22;25203;50.754;6.978;2023-06-22T05:32:28;20.40;99.90
39525;DHT22;25203;50.754;6.978;2023-06-22T05:34:29;20.40;99.90
39525;DHT22;25203;50.754;6.978;2023-06-22T05:36:30;20.50;99.90
39525;DHT22;25203;50.754;6.978;2023-06-22T05:38:30;20.60;99.90
39525;DHT22;25203;50.754;6.978;2023-06-22T05:40:31;20.70;99.90
39525;DHT22;25203;50.754;6.978;2023-06-22T05:42:31;20.90;99.90
39525;DHT22;25203;50.754;6.978;2023-06-22T05:44:32;21.10;99.90
39525;DHT22;25203;50.754;6.978;2023-06-22T05:46:33;21.30;99.90
39525;DHT22;25203;50.754;6.978;2023-06-22T05:48:34;21.40;99.90
39525;DHT22;25203;50.754;6.978;2023-06-22T05:50:36;21.50;99.90
39525;DHT22;25203;50.754;6.978;2023-06-22T05:52:36;21.70;99.90
39525;DHT22;25203;50.754;6.978;2023-06-22T05:54:37;21.60;99.90
39525;DHT22;25203;50.754;6.978;2023-06-22T05:56:39;21.70;99.90
39525;DHT22;25203;50.754;6.978;2023-06-22T05:58:40;21.70;99.90
39525;DHT22;25203;50.754;6.978;2023-06-22T06:00:41;21.80;99.90
39525;DHT22;25203;50.754;6.978;2023-06-22T06:02:43;22.00;99.90
39525;DHT22;25203;50.754;6.978;2023-06-22T06:04:43;22.20;99.90
39525;DHT22;25203;50.754;6.978;2023-06-22T06:06:44;22.20;99.90
39525;DHT22;25203;50.754;6.978;2023-06-22T06:08:45;22.20;99.90
39525;DHT22;25203;50.754;6.978;2023-06-22T06:10:45;22.20;99.90
39525;DHT22;25203;50.754;6.978;2023-06-22T06:12:46;22.30;99.90
39525;DHT22;25203;50.754;6.978;2023-06-22T06:14:47;22.30;99.90
39525;DHT22;25203;50.754;6.978;2023-06-22T06:16:49;22.40;99.90
39525;DHT22;25203;50.754;6.978;2023-06-22T06:18:49;22.40;99.90
39525;DHT22;25203;50.754;6.978;2023-06-22T06:20:51;22.40;99.90
39525;DHT22;25203;50.754;6.978;2023-06-22T06:22:51;22.40;99.90
39525;DHT22;25203;50.754;6.978;2023-06-22T06:24:52;22.40;99.90
39525;DHT22;25203;50.754;6.978;2023-06-22T06:26:52;22.40;99.90
39525;DHT22;25203;50.754;6.978;2023-06-22T06:28:54;22.50;99.90
39525;DHT22;25203;50.754;6.978;2023-06-22T06:30:55;22.50;99.90
39525;DHT22;25203;50.754;6.978;2023-06-22T06:32:56;22.40;99.90
39525;DHT22;25203;50.754;6.978;2023-06-22T06:34:56;22.40;99.90
39525;DHT22;25203;50.754;6.978;2023-06-22T06:36:57;22.30;99.90
39525;DHT22;25203;50.754;6.978;2023-06-22T06:38:58;22.30;99.90
39525;DHT22;25203;50.754;6.978;2023-06-22T06:40:59;22.30;99.90
39525;DHT22;25203;50.754;6.978;2023-06-22T06:42:59;22.30;99.90
39525;DHT22;25203;50.754;6.978;2023-06-22T06:45:00;22.40;99.90
39525;DHT22;25203;50.754;6.978;2023-06-22T06:47:01;22.60;99.90
39525;DHT22;25203;50.754;6.978;2023-06-22T06:49:01;22.80;99.90
39525;DHT22;25203;50.754;6.978;2023-06-22T06:51:02;23.00;99.90
39525;DHT22;25203;50.754;6.978;2023-06-22T06:53:02;23.20;99.90
39525;DHT22;25203;50.754;6.978;2023-06-22T06:55:04;23.40;99.90
39525;DHT22;25203;50.754;6.978;2023-06-22T06:57:08;23.60;99.90
39525;DHT22;25203;50.754;6.978;2023-06-22T06:59:11;23.80;99.90
39525;DHT22;25203;50.754;6.978;2023-06-22T07:01:12;23.80;99.90
39525;DHT22;25203;50.754;6.978;2023-06-22T07:03:13;24.00;99.90
39525;DHT22;25203;50.754;6.978;2023-06-22T07:05:13;24.10;99.90
39525;DHT22;25203;50.754;6.978;2023-06-22T07:07:14;24.10;99.90
39525;DHT22;25203;50.754;6.978;2023-06-22T07:09:15;24.00;99.90
39525;DHT22;25203;50.754;6.978;2023-06-22T07:11:15;24.10;99.90
39525;DHT22;25203;50.754;6.978;2023-06-22T07:13:16;24.10;99.90
39525;DHT22;25203;50.754;6.978;2023-06-22T07:15:16;24.10;99.90
39525;DHT22;25203;50.754;6.978;2023-06-22T07:17:17;24.20;99.90
39525;DHT22;25203;50.754;6.978;2023-06-22T07:19:24;24.40;99.90
39525;DHT22;25203;50.754;6.978;2023-06-22T07:21:26;24.50;99.90
39525;DHT22;25203;50.754;6.978;2023-06-22T07:23:26;24.70;99.90
39525;DHT22;25203;50.754;6.978;2023-06-22T07:25:27;24.80;99.90
39525;DHT22;25203;50.754;6.978;2023-06-22T07:27:28;24.90;99.90
39525;DHT22;25203;50.754;6.978;2023-06-22T07:29:28;25.20;99.90
39525;DHT22;25203;50.754;6.978;2023-06-22T07:31:29;25.40;99.90
39525;DHT22;25203;50.754;6.978;2023-06-22T07:33:30;25.70;99.90
39525;DHT22;25203;50.754;6.978;2023-06-22T07:35:31;26.00;99.90
39525;DHT22;25203;50.754;6.978;2023-06-22T07:37:33;26.20;99.90
39525;DHT22;25203;50.754;6.978;2023-06-22T07:39:35;26.40;99.90
39525;DHT22;25203;50.754;6.978;2023-06-22T07:41:39;26.60;99.90
39525;DHT22;25203;50.754;6.978;2023-06-22T07:43:41;26.70;99.90
39525;DHT22;25203;50.754;6.978;2023-06-22T07:45:48;26.90;99.90
39525;DHT22;25203;50.754;6.978;2023-06-22T07:47:52;27.00;99.90
39525;DHT22;25203;50.754;6.978;2023-06-22T07:49:53;27.10;99.60
39525;DHT22;25203;50.754;6.978;2023-06-22T07:51:55;27.20;99.90
39525;DHT22;25203;50.754;6.978;2023-06-22T07:53:55;27.20;99.40
39525;DHT22;25203;50.754;6.978;2023-06-22T07:55:56;27.30;99.60
39525;DHT22;25203;50.754;6.978;2023-06-22T07:57:57;27.30;99.00
39525;DHT22;25203;50.754;6.978;2023-06-22T08:00:02;27.30;99.20
39525;DHT22;25203;50.754;6.978;2023-06-22T08:02:05;27.20;99.90
39525;DHT22;25203;50.754;6.978;2023-06-22T08:04:05;27.40;99.90
39525;DHT22;25203;50.754;6.978;2023-06-22T08:06:07;27.60;99.40
39525;DHT22;25203;50.754;6.978;2023-06-22T08:08:09;27.90;98.50
39525;DHT22;25203;50.754;6.978;2023-06-22T08:10:13;28.20;97.40
39525;DHT22;25203;50.754;6.978;2023-06-22T08:12:14;28.40;96.20
39525;DHT22;25203;50.754;6.978;2023-06-22T08:14:15;28.70;97.00
39525;DHT22;25203;50.754;6.978;2023-06-22T08:16:15;29.10;95.70
39525;DHT22;25203;50.754;6.978;2023-06-22T08:18:16;29.50;95.80
39525;DHT22;25203;50.754;6.978;2023-06-22T08:20:16;29.90;94.30
39525;DHT22;25203;50.754;6.978;2023-06-22T08:22:17;30.30;93.50
39525;DHT22;25203;50.754;6.978;2023-06-22T08:24:18;30.80;91.40
39525;DHT22;25203;50.754;6.978;2023-06-22T08:26:19;30.90;89.10
39525;DHT22;25203;50.754;6.978;2023-06-22T08:28:19;31.60;89.00
39525;DHT22;25203;50.754;6.978;2023-06-22T08:30:20;32.20;84.30
39525;DHT22;25203;50.754;6.978;2023-06-22T08:32:21;32.80;81.40
39525;DHT22;25203;50.754;6.978;2023-06-22T08:34:22;33.10;79.20
39525;DHT22;25203;50.754;6.978;2023-06-22T08:36:28;33.60;76.10
39525;DHT22;25203;50.754;6.978;2023-06-22T08:38:33;34.10;74.50
39525;DHT22;25203;50.754;6.978;2023-06-22T08:40:33;34.20;73.00
39525;DHT22;25203;50.754;6.978;2023-06-22T08:42:37;34.20;71.70
39525;DHT22;25203;50.754;6.978;2023-06-22T08:44:38;34.10;72.00
39525;DHT22;25203;50.754;6.978;2023-06-22T08:46:39;33.50;71.90
39525;DHT22;25203;50.754;6.978;2023-06-22T08:48:41;33.00;73.30
39525;DHT22;25203;50.754;6.978;2023-06-22T08:50:41;32.30;75.30
39525;DHT22;25203;50.754;6.978;2023-06-22T08:52:42;32.00;77.20
39525;DHT22;25203;50.754;6.978;2023-06-22T08:54:42;31.70;77.90
39525;DHT22;25203;50.754;6.978;2023-06-22T08:56:43;31.40;79.10
39525;DHT22;25203;50.754;6.978;2023-06-22T08:58:44;31.10;82.90
39525;DHT22;25203;50.754;6.978;2023-06-22T09:00:45;30.90;83.10
39525;DHT22;25203;50.754;6.978;2023-06-22T09:02:47;30.80;83.40
39525;DHT22;25203;50.754;6.978;2023-06-22T09:04:47;30.70;85.10
39525;DHT22;25203;50.754;6.978;2023-06-22T09:06:49;30.70;85.00
39525;DHT22;25203;50.754;6.978;2023-06-22T09:08:50;30.60;85.80
39525;DHT22;25203;50.754;6.978;2023-06-22T09:10:51;30.30;86.30
39525;DHT22;25203;50.754;6.978;2023-06-22T09:12:51;30.20;87.50
39525;DHT22;25203;50.754;6.978;2023-06-22T09:14:52;30.10;87.60
39525;DHT22;25203;50.754;6.978;2023-06-22T09:16:53;30.00;87.70
39525;DHT22;25203;50.754;6.978;2023-06-22T09:18:53;30.00;88.60
39525;DHT22;25203;50.754;6.978;2023-06-22T09:20:54;30.20;88.70
39525;DHT22;25203;50.754;6.978;2023-06-22T09:22:54;30.40;88.50
39525;DHT22;25203;50.754;6.978;2023-06-22T09:24:55;30.70;85.50
39525;DHT22;25203;50.754;6.978;2023-06-22T09:26:56;31.10;85.60
39525;DHT22;25203;50.754;6.978;2023-06-22T09:28:57;31.60;82.80
39525;DHT22;25203;50.754;6.978;2023-06-22T09:30:58;32.20;80.20
39525;DHT22;25203;50.754;6.978;2023-06-22T09:32:59;32.80;77.50
39525;DHT22;25203;50.754;6.978;2023-06-22T09:35:04;33.30;75.80
39525;DHT22;25203;50.754;6.978;2023-06-22T09:37:06;33.30;75.30
39525;DHT22;25203;50.754;6.978;2023-06-22T09:39:06;33.20;74.50
39525;DHT22;25203;50.754;6.978;2023-06-22T09:41:07;32.90;75.80
39525;DHT22;25203;50.754;6.978;2023-06-22T09:43:08;32.60;75.90
39525;DHT22;25203;50.754;6.978;2023-06-22T09:45:09;32.10;77.90
39525;DHT22;25203;50.754;6.978;2023-06-22T09:47:09;31.30;81.40
39525;DHT22;25203;50.754;6.978;2023-06-22T09:49:10;30.60;83.20
39525;DHT22;25203;50.754;6.978;2023-06-22T09:51:11;30.00;87.30
39525;DHT22;25203;50.754;6.978;2023-06-22T09:53:12;29.30;88.90
39525;DHT22;25203;50.754;6.978;2023-06-22T09:55:12;28.70;91.10
39525;DHT22;25203;50.754;6.978;2023-06-22T09:57:13;28.40;92.20
39525;DHT22;25203;50.754;6.978;2023-06-22T09:59:14;27.90;93.80
39525;DHT22;25203;50.754;6.978;2023-06-22T10:01:14;27.60;95.30
39525;DHT22;25203;50.754;6.978;2023-06-22T10:03:15;27.30;96.20
39525;DHT22;25203;50.754;6.978;2023-06-22T10:05:15;27.10;97.50
39525;DHT22;25203;50.754;6.978;2023-06-22T10:07:16;27.00;98.40
39525;DHT22;25203;50.754;6.978;2023-06-22T10:09:17;26.70;99.90
39525;DHT22;25203;50.754;6.978;2023-06-22T10:11:17;26.40;99.90
39525;DHT22;25203;50.754;6.978;2023-06-22T10:13:18;26.20;99.90
39525;DHT22;25203;50.754;6.978;2023-06-22T10:15:19;26.00;99.90
39525;DHT22;25203;50.754;6.978;2023-06-22T10:17:19;25.80;99.90
39525;DHT22;25203;50.754;6.978;2023-06-22T10:19:20;25.60;99.90
39525;DHT22;25203;50.754;6.978;2023-06-22T10:21:21;25.40;99.90
39525;DHT22;25203;50.754;6.978;2023-06-22T10:23:21;25.20;99.90
39525;DHT22;25203;50.754;6.978;2023-06-22T10:25:22;25.00;99.90
39525;DHT22;25203;50.754;6.978;2023-06-22T10:27:23;24.90;99.90
39525;DHT22;25203;50.754;6.978;2023-06-22T10:29:23;24.60;99.90
39525;DHT22;25203;50.754;6.978;2023-06-22T10:31:24;24.40;99.90
39525;DHT22;25203;50.754;6.978;2023-06-22T10:33:24;24.20;99.90
39525;DHT22;25203;50.754;6.978;2023-06-22T10:35:25;24.00;99.90
39525;DHT22;25203;50.754;6.978;2023-06-22T10:37:26;23.80;99.90
39525;DHT22;25203;50.754;6.978;2023-06-22T10:39:26;23.50;99.90
39525;DHT22;25203;50.754;6.978;2023-06-22T10:41:27;23.20;99.90
39525;DHT22;25203;50.754;6.978;2023-06-22T10:43:30;23.00;99.90
39525;DHT22;25203;50.754;6.978;2023-06-22T10:45:30;22.70;99.90
39525;DHT22;25203;50.754;6.978;2023-06-22T10:47:31;22.40;99.90
39525;DHT22;25203;50.754;6.978;2023-06-22T10:49:32;22.10;99.90
39525;DHT22;25203;50.754;6.978;2023-06-22T10:51:32;21.80;99.90
39525;DHT22;25203;50.754;6.978;2023-06-22T10:53:33;21.60;99.90
39525;DHT22;25203;50.754;6.978;2023-06-22T10:55:34;21.60;99.90
39525;DHT22;25203;50.754;6.978;2023-06-22T10:57:35;21.40;99.90
39525;DHT22;25203;50.754;6.978;2023-06-22T10:59:36;21.40;99.90
39525;DHT22;25203;50.754;6.978;2023-06-22T11:01:37;21.40;99.90
39525;DHT22;25203;50.754;6.978;2023-06-22T11:03:38;21.40;99.90
39525;DHT22;25203;50.754;6.978;2023-06-22T11:05:38;21.50;99.90
39525;DHT22;25203;50.754;6.978;2023-06-22T11:07:43;21.50;99.90
39525;DHT22;25203;50.754;6.978;2023-06-22T11:09:44;21.60;99.90
39525;DHT22;25203;50.754;6.978;2023-06-22T11:11:45;21.60;99.90
39525;DHT22;25203;50.754;6.978;2023-06-22T11:13:45;21.70;99.90
39525;DHT22;25203;50.754;6.978;2023-06-22T11:15:46;21.70;99.90
39525;DHT22;25203;50.754;6.978;2023-06-22T11:17:47;21.60;99.90
39525;DHT22;25203;50.754;6.978;2023-06-22T11:19:47;21.70;99.90
39525;DHT22;25203;50.754;6.978;2023-06-22T11:21:48;21.80;99.90
39525;DHT22;25203;50.754;6.978;2023-06-22T11:23:48;21.90;99.90
39525;DHT22;25203;50.754;6.978;2023-06-22T11:25:50;21.90;99.90
39525;DHT22;25203;50.754;6.978;2023-06-22T11:27:51;21.90;99.90
39525;DHT22;25203;50.754;6.978;2023-06-22T11:29:54;21.90;99.90
39525;DHT22;25203;50.754;6.978;2023-06-22T11:31:54;21.90;99.90
39525;DHT22;25203;50.754;6.978;2023-06-22T11:33:55;22.10;99.90
39525;DHT22;25203;50.754;6.978;2023-06-22T11:35:55;22.40;99.90
39525;DHT22;25203;50.754;6.978;2023-06-22T11:37:56;22.60;99.90
39525;DHT22;25203;50.754;6.978;2023-06-22T11:39:58;23.10;99.90
39525;DHT22;25203;50.754;6.978;2023-06-22T11:41:59;24.00;99.90
39525;DHT22;25203;50.754;6.978;2023-06-22T11:43:59;25.10;99.90
39525;DHT22;25203;50.754;6.978;2023-06-22T11:46:02;26.20;99.90
39525;DHT22;25203;50.754;6.978;2023-06-22T11:48:03;27.10;99.90
39525;DHT22;25203;50.754;6.978;2023-06-22T11:50:05;27.40;99.90
39525;DHT22;25203;50.754;6.978;2023-06-22T11:52:06;27.50;99.90
39525;DHT22;25203;50.754;6.978;2023-06-22T11:54:06;27.70;99.90
39525;DHT22;25203;50.754;6.978;2023-06-22T11:56:07;27.40;99.90
39525;DHT22;25203;50.754;6.978;2023-06-22T11:58:08;26.80;99.90
39525;DHT22;25203;50.754;6.978;2023-06-22T12:00:09;26.20;99.90
39525;DHT22;25203;50.754;6.978;2023-06-22T12:02:17;25.60;99.90
39525;DHT22;25203;50.754;6.978;2023-06-22T12:04:17;25.30;99.90
39525;DHT22;25203;50.754;6.978;2023-06-22T12:06:18;25.10;99.90
39525;DHT22;25203;50.754;6.978;2023-06-22T12:08:19;24.90;99.90
39525;DHT22;25203;50.754;6.978;2023-06-22T12:10:20;24.70;99.90
39525;DHT22;25203;50.754;6.978;2023-06-22T12:12:20;24.60;99.90
39525;DHT22;25203;50.754;6.978;2023-06-22T12:14:21;24.40;99.90
39525;DHT22;25203;50.754;6.978;2023-06-22T12:16:22;24.20;99.90
39525;DHT22;25203;50.754;6.978;2023-06-22T12:18:23;24.00;99.90
39525;DHT22;25203;50.754;6.978;2023-06-22T12:20:23;23.80;99.90
39525;DHT22;25203;50.754;6.978;2023-06-22T12:22:24;23.80;99.90
39525;DHT22;25203;50.754;6.978;2023-06-22T12:24:24;23.90;99.90
39525;DHT22;25203;50.754;6.978;2023-06-22T12:26:25;24.40;99.90
39525;DHT22;25203;50.754;6.978;2023-06-22T12:28:26;25.10;99.90
39525;DHT22;25203;50.754;6.978;2023-06-22T12:30:27;25.60;99.90
39525;DHT22;25203;50.754;6.978;2023-06-22T12:32:28;26.10;99.90
39525;DHT22;25203;50.754;6.978;2023-06-22T12:34:28;26.60;99.90
39525;DHT22;25203;50.754;6.978;2023-06-22T12:36:29;27.10;99.90
39525;DHT22;25203;50.754;6.978;2023-06-22T12:38:29;27.40;99.90
39525;DHT22;25203;50.754;6.978;2023-06-22T12:40:30;27.80;99.90
39525;DHT22;25203;50.754;6.978;2023-06-22T12:42:30;27.80;99.90
39525;DHT22;25203;50.754;6.978;2023-06-22T12:44:31;28.20;99.90
39525;DHT22;25203;50.754;6.978;2023-06-22T12:46:32;28.30;99.90
39525;DHT22;25203;50.754;6.978;2023-06-22T12:48:37;28.50;99.90
39525;DHT22;25203;50.754;6.978;2023-06-22T12:50:42;28.20;99.90
39525;DHT22;25203;50.754;6.978;2023-06-22T12:52:42;28.30;99.90